Time;durP1;ratioP1;P1;durP2;ratioP2;P2;SDS_P1;SDS_P2;PMS_P1;PMS_P2;Temp;Humidity;BMP_temperature;BMP_pressure;BME280_temperature;BME280_humidity;BME280_pressure;Samples;Min_cycle;Max_cycle;Signal;HPM_P1;HPM_P2
2024/02/21 00:00:57;;;;;;;12.80;3.95;;;11.40;84.50;;;;;;5034719;28;20558;-63
2024/02/21 00:03:23;;;;;;;10.77;4.07;;;11.50;84.40;;;;;;5025068;28;20065;-64
2024/02/21 00:05:49;;;;;;;17.00;5.20;;;11.40;84.50;;;;;;5028467;28;20607;-64
2024/02/21 00:08:15;;;;;;;4.97;3.33;;;11.40;84.70;;;;;;5029614;28;20060;-63
2024/02/21 00:10:41;;;;;;;8.23;3.20;;;11.30;84.70;;;;;;5027499;28;20033;-63
2024/02/21 00:13:07;;;;;;;9.35;3.65;;;11.40;84.80;;;;;;5029514;28;20108;-63
2024/02/21 00:15:33;;;;;;;13.60;5.07;;;11.40;84.70;;;;;;5028497;28;20029;-63
2024/02/21 00:17:59;;;;;;;11.63;4.22;;;11.40;84.70;;;;;;5030570;28;20364;-64
2024/02/21 00:20:26;;;;;;;7.32;3.63;;;11.40;84.60;;;;;;5041194;28;20035;-63
2024/02/21 00:22:52;;;;;;;6.35;3.83;;;11.40;84.60;;;;;;5034312;28;20424;-63
2024/02/21 00:25:18;;;;;;;8.73;3.60;;;11.40;84.60;;;;;;5032051;28;20057;-63
2024/02/21 00:27:44;;;;;;;7.20;3.22;;;11.40;84.60;;;;;;5032753;28;20440;-64
2024/02/21 00:30:11;;;;;;;11.82;3.72;;;11.40;84.60;;;;;;5031012;28;20036;-64
2024/02/21 00:32:37;;;;;;;6.65;3.00;;;11.40;84.70;;;;;;5030575;28;20092;-64
2024/02/21 00:35:03;;;;;;;5.85;3.40;;;11.40;84.60;;;;;;5037471;28;20039;-63
2024/02/21 00:37:29;;;;;;;14.13;4.68;;;11.40;84.50;;;;;;5030911;28;20038;-63
2024/02/21 00:39:55;;;;;;;5.35;4.13;;;11.40;84.50;;;;;;5034068;28;20045;-64
2024/02/21 00:42:21;;;;;;;8.73;4.40;;;11.40;84.60;;;;;;5027467;28;20113;-63
2024/02/21 00:44:47;;;;;;;12.27;4.40;;;11.40;84.70;;;;;;5022093;28;20057;-63
2024/02/21 00:47:13;;;;;;;4.18;2.40;;;11.40;84.70;;;;;;5031657;28;20022;-64
2024/02/21 00:49:39;;;;;;;6.68;3.10;;;11.40;84.70;;;;;;5031323;28;20029;-63
2024/02/21 00:52:05;;;;;;;6.38;3.28;;;11.30;84.70;;;;;;5033919;28;20040;-63
2024/02/21 00:54:31;;;;;;;9.60;4.38;;;11.40;84.70;;;;;;5032350;28;20029;-63
2024/02/21 00:56:57;;;;;;;11.90;3.38;;;11.40;84.70;;;;;;5036788;28;20112;-63
2024/02/21 00:59:23;;;;;;;8.73;4.07;;;11.30;84.60;;;;;;5032816;28;20033;-63
2024/02/21 01:01:49;;;;;;;8.68;3.78;;;11.40;84.70;;;;;;5039330;28;20533;-64
2024/02/21 01:04:15;;;;;;;6.35;4.15;;;11.40;84.80;;;;;;5031361;28;20116;-64
2024/02/21 01:06:43;;;;;;;5.97;3.30;;;11.30;84.80;;;;;;5031226;28;20117;-63
2024/02/21 01:09:11;;;;;;;8.45;3.40;;;11.30;84.70;;;;;;5028649;28;20079;-63
2024/02/21 01:11:37;;;;;;;9.50;3.20;;;11.40;84.80;;;;;;5031065;28;20037;-67
2024/02/21 01:14:03;;;;;;;9.88;3.97;;;11.40;84.80;;;;;;5030327;28;20472;-67
2024/02/21 01:16:29;;;;;;;7.47;2.67;;;11.40;84.70;;;;;;5032402;28;20144;-67
2024/02/21 01:18:55;;;;;;;7.53;3.17;;;11.40;84.70;;;;;;5023372;28;20037;-67
2024/02/21 01:21:21;;;;;;;9.40;2.80;;;11.40;84.60;;;;;;5037188;28;20040;-67
2024/02/21 01:23:47;;;;;;;9.38;3.63;;;11.40;84.60;;;;;;5030813;28;20365;-67
2024/02/21 01:26:15;;;;;;;5.32;2.67;;;11.40;84.60;;;;;;5032525;28;20435;-67
2024/02/21 01:28:42;;;;;;;5.97;3.53;;;11.40;84.60;;;;;;5027670;28;20388;-67
2024/02/21 01:31:08;;;;;;;4.90;2.70;;;11.40;84.70;;;;;;5029331;28;20143;-67
2024/02/21 01:33:38;;;;;;;13.18;3.97;;;11.40;84.80;;;;;;5027971;28;20117;-67
2024/02/21 01:36:07;;;;;;;5.18;2.97;;;11.30;84.70;;;;;;5028524;28;20033;-67
2024/02/21 01:38:34;;;;;;;5.82;2.58;;;11.30;84.70;;;;;;5023015;28;20033;-67
2024/02/21 01:41:00;;;;;;;11.25;3.10;;;11.30;84.70;;;;;;5039229;28;20130;-67
2024/02/21 01:43:26;;;;;;;8.45;4.07;;;11.40;84.80;;;;;;5032586;28;20041;-67
2024/02/21 01:45:54;;;;;;;12.52;3.45;;;11.30;84.70;;;;;;5031953;28;20025;-67
2024/02/21 01:48:22;;;;;;;5.38;2.63;;;11.40;84.80;;;;;;5041079;28;20026;-67
2024/02/21 01:50:54;;;;;;;5.10;3.17;;;11.40;84.90;;;;;;5027509;28;20389;-67
2024/02/21 01:53:33;;;;;;;9.27;3.63;;;11.30;84.90;;;;;;5030045;28;20033;-67
2024/02/21 01:56:00;;;;;;;5.13;2.85;;;11.30;84.90;;;;;;5031866;28;20506;-67
2024/02/21 01:58:28;;;;;;;14.20;3.83;;;11.30;85.00;;;;;;5032116;28;20461;-67
2024/02/21 02:00:56;;;;;;;8.18;4.03;;;11.20;85.00;;;;;;5023365;28;20380;-67
2024/02/21 02:03:22;;;;;;;8.70;3.53;;;11.20;85.00;;;;;;5031828;28;20033;-67
2024/02/21 02:05:50;;;;;;;8.45;3.95;;;11.20;85.10;;;;;;5031820;28;20029;-67
2024/02/21 02:08:18;;;;;;;6.40;3.70;;;11.20;85.30;;;;;;5032926;28;20025;-66
2024/02/21 02:10:45;;;;;;;6.28;3.50;;;11.20;85.30;;;;;;5031392;28;20038;-63
2024/02/21 02:13:11;;;;;;;10.50;3.85;;;11.20;85.40;;;;;;5012490;28;20041;-63
2024/02/21 02:15:45;;;;;;;8.40;3.25;;;11.10;85.40;;;;;;5027125;28;20390;-63
2024/02/21 02:18:12;;;;;;;6.20;3.15;;;11.20;85.40;;;;;;5030038;28;20032;-63
2024/02/21 02:20:39;;;;;;;6.05;3.13;;;11.20;85.50;;;;;;5029113;28;20095;-63
2024/02/21 02:23:29;;;;;;;9.75;3.38;;;11.20;85.40;;;;;;5029889;28;20033;-63
2024/02/21 02:25:56;;;;;;;4.97;2.72;;;11.20;85.40;;;;;;5027135;28;20026;-63
2024/02/21 02:28:22;;;;;;;13.55;3.88;;;11.20;85.50;;;;;;5032273;28;20576;-63
2024/02/21 02:30:49;;;;;;;7.60;3.33;;;11.20;85.50;;;;;;5030665;28;20037;-63
2024/02/21 02:33:17;;;;;;;11.32;3.80;;;11.10;85.50;;;;;;5031589;28;20474;-63
2024/02/21 02:35:43;;;;;;;14.02;3.80;;;11.10;85.50;;;;;;5029067;28;20030;-63
2024/02/21 02:38:11;;;;;;;6.40;4.00;;;11.10;85.50;;;;;;5032798;28;20026;-63
2024/02/21 02:40:40;;;;;;;11.88;3.90;;;11.10;85.40;;;;;;5026810;28;20021;-63
2024/02/21 02:43:06;;;;;;;8.30;2.97;;;11.10;85.50;;;;;;5028599;28;20583;-63
2024/02/21 02:45:33;;;;;;;10.35;3.53;;;11.00;85.50;;;;;;5027321;28;20029;-63
2024/02/21 02:47:59;;;;;;;9.05;3.70;;;11.10;85.50;;;;;;5029495;28;20057;-63
2024/02/21 02:50:26;;;;;;;11.13;3.60;;;11.10;85.50;;;;;;5031897;28;20030;-63
2024/02/21 02:52:54;;;;;;;5.03;3.55;;;11.10;85.50;;;;;;5028464;28;20021;-63
2024/02/21 02:55:20;;;;;;;6.32;2.95;;;11.10;85.40;;;;;;5029492;28;20025;-64
2024/02/21 02:57:46;;;;;;;6.05;2.88;;;11.20;85.30;;;;;;5061514;28;20129;-63
2024/02/21 03:00:13;;;;;;;10.05;3.58;;;11.10;85.30;;;;;;5029795;28;20049;-67
2024/02/21 03:02:40;;;;;;;5.80;3.00;;;11.10;85.20;;;;;;5031418;28;20059;-67
2024/02/21 03:05:18;;;;;;;7.22;4.20;;;11.10;85.30;;;;;;5024760;28;20545;-67
2024/02/21 03:07:44;;;;;;;8.45;3.45;;;11.10;85.20;;;;;;5032419;28;20017;-67
2024/02/21 03:10:11;;;;;;;7.60;2.60;;;11.10;85.20;;;;;;5029981;28;20033;-66
2024/02/21 03:12:37;;;;;;;4.53;2.45;;;11.10;85.30;;;;;;5028026;28;20500;-67
2024/02/21 03:15:05;;;;;;;9.88;3.47;;;11.10;85.20;;;;;;5030167;28;20030;-67
2024/02/21 03:17:32;;;;;;;8.05;2.80;;;11.10;85.20;;;;;;5029899;28;20045;-67
2024/02/21 03:19:59;;;;;;;7.50;4.32;;;11.20;85.30;;;;;;5029392;28;20113;-67
2024/02/21 03:22:26;;;;;;;7.10;2.85;;;11.20;85.20;;;;;;5030451;28;20036;-67
2024/02/21 03:24:52;;;;;;;5.38;2.65;;;11.20;85.20;;;;;;5023190;28;20087;-67
2024/02/21 03:27:18;;;;;;;4.75;3.25;;;11.20;85.10;;;;;;5034855;28;20473;-63
2024/02/21 03:29:44;;;;;;;6.35;2.53;;;11.20;85.00;;;;;;5035875;28;20040;-67
2024/02/21 03:32:10;;;;;;;5.68;3.13;;;11.20;85.00;;;;;;5037275;28;20303;-63
2024/02/21 03:34:36;;;;;;;5.43;2.45;;;11.20;85.00;;;;;;5030408;28;20091;-63
2024/02/21 03:37:02;;;;;;;6.20;2.97;;;11.20;85.00;;;;;;5023690;28;20033;-63
2024/02/21 03:39:32;;;;;;;6.57;3.67;;;11.20;85.00;;;;;;5026890;28;20120;-64
2024/02/21 03:42:00;;;;;;;4.97;3.17;;;11.20;85.10;;;;;;5029534;28;20033;-67
2024/02/21 03:44:27;;;;;;;7.05;2.53;;;11.20;85.10;;;;;;5028288;28;20044;-67
2024/02/21 03:46:53;;;;;;;8.93;3.95;;;11.10;85.10;;;;;;5030106;28;20049;-67
2024/02/21 03:49:19;;;;;;;11.05;3.00;;;11.10;85.10;;;;;;5029974;28;20416;-67
2024/02/21 03:51:45;;;;;;;8.52;3.45;;;11.10;85.20;;;;;;5029256;28;20039;-67
2024/02/21 03:54:11;;;;;;;3.85;2.17;;;11.20;85.10;;;;;;5029911;28;20041;-67
2024/02/21 03:56:40;;;;;;;7.45;3.08;;;11.10;85.00;;;;;;5034336;28;20520;-67
2024/02/21 03:59:09;;;;;;;7.28;3.58;;;11.20;85.10;;;;;;5026556;28;20053;-63
2024/02/21 04:01:35;;;;;;;7.00;3.35;;;11.20;85.00;;;;;;5022523;28;20083;-63
2024/02/21 04:04:01;;;;;;;4.10;2.58;;;11.20;85.10;;;;;;5026355;28;20038;-63
2024/02/21 04:06:27;;;;;;;8.43;3.28;;;11.20;85.00;;;;;;5029779;28;20053;-63
2024/02/21 04:08:53;;;;;;;4.88;2.17;;;11.20;85.10;;;;;;5031673;28;20084;-63
2024/02/21 04:11:20;;;;;;;6.82;2.75;;;11.20;85.00;;;;;;5028665;28;20098;-66
2024/02/21 04:13:48;;;;;;;7.07;2.83;;;11.20;85.00;;;;;;5027284;28;20065;-63
2024/02/21 04:16:15;;;;;;;3.20;1.95;;;11.20;84.80;;;;;;5028380;28;20336;-67
2024/02/21 04:18:42;;;;;;;4.57;2.38;;;11.20;84.90;;;;;;5031819;28;20037;-67
2024/02/21 04:21:08;;;;;;;5.65;2.35;;;11.20;84.70;;;;;;5029874;28;20480;-67
2024/02/21 04:23:34;;;;;;;6.32;3.35;;;11.20;84.80;;;;;;5028870;28;20060;-63
2024/02/21 04:26:00;;;;;;;5.97;3.05;;;11.20;84.80;;;;;;5027879;28;20051;-63
2024/02/21 04:28:27;;;;;;;6.72;2.75;;;11.20;84.80;;;;;;5025219;28;20558;-63
2024/02/21 04:30:52;;;;;;;4.20;2.03;;;11.20;84.80;;;;;;5029730;28;20026;-63
2024/02/21 04:33:18;;;;;;;3.88;1.90;;;11.20;84.90;;;;;;5022676;28;20033;-65
2024/02/21 04:35:44;;;;;;;5.07;2.38;;;11.20;84.90;;;;;;5028931;28;20041;-67
2024/02/21 04:38:10;;;;;;;3.97;1.60;;;11.20;84.80;;;;;;5023908;28;20021;-67
2024/02/21 04:40:36;;;;;;;5.93;2.38;;;11.20;84.70;;;;;;5028484;28;20034;-67
2024/02/21 04:43:04;;;;;;;2.63;2.20;;;11.20;84.60;;;;;;5027203;28;20044;-67
2024/02/21 04:45:30;;;;;;;4.50;1.85;;;11.20;84.60;;;;;;5027379;28;20079;-67
2024/02/21 04:47:56;;;;;;;5.45;2.15;;;11.20;84.70;;;;;;5029058;28;20473;-67
2024/02/21 04:50:22;;;;;;;8.15;2.90;;;11.20;84.70;;;;;;5028983;28;20034;-67
2024/02/21 04:52:48;;;;;;;4.75;2.15;;;11.20;84.70;;;;;;5028729;28;20029;-67
2024/02/21 04:55:14;;;;;;;12.75;3.47;;;11.20;84.60;;;;;;5030865;28;20566;-67
2024/02/21 04:57:40;;;;;;;6.38;2.25;;;11.20;84.40;;;;;;5030126;28;20492;-67
2024/02/21 05:00:07;;;;;;;4.53;1.95;;;11.20;84.50;;;;;;5038755;28;20083;-67
2024/02/21 05:02:33;;;;;;;2.58;1.75;;;11.20;84.50;;;;;;5030935;28;20036;-63
2024/02/21 05:04:59;;;;;;;1.90;1.30;;;11.20;84.40;;;;;;5033056;28;20389;-63
2024/02/21 05:07:25;;;;;;;4.97;1.90;;;11.20;84.50;;;;;;5033496;28;20025;-63
2024/02/21 05:09:51;;;;;;;8.38;2.10;;;11.20;84.50;;;;;;5031866;28;20488;-63
2024/02/21 05:12:17;;;;;;;9.45;2.30;;;11.20;84.40;;;;;;5031736;28;20420;-63
2024/02/21 05:14:43;;;;;;;7.78;2.33;;;11.20;84.40;;;;;;5028860;28;20041;-63
2024/02/21 05:17:09;;;;;;;3.53;2.28;;;11.20;84.40;;;;;;5028761;28;20030;-63
2024/02/21 05:19:35;;;;;;;3.38;1.70;;;11.20;84.40;;;;;;5030775;28;20551;-64
2024/02/21 05:22:01;;;;;;;3.63;2.67;;;11.20;84.50;;;;;;5029809;28;20033;-63
2024/02/21 05:24:27;;;;;;;4.97;2.10;;;11.20;84.40;;;;;;5030415;28;20266;-64
2024/02/21 05:26:54;;;;;;;5.15;1.98;;;11.20;84.20;;;;;;5030200;28;20049;-63
2024/02/21 05:29:20;;;;;;;5.82;2.20;;;11.20;84.20;;;;;;5029442;28;20473;-63
2024/02/21 05:31:52;;;;;;;7.70;2.95;;;11.20;84.20;;;;;;5029932;28;20040;-63
2024/02/21 05:34:22;;;;;;;8.57;2.72;;;11.10;84.30;;;;;;5028047;28;20408;-63
2024/02/21 05:36:49;;;;;;;3.92;3.22;;;11.10;84.30;;;;;;5013746;28;20065;-63
2024/02/21 05:39:16;;;;;;;6.55;2.17;;;11.20;84.40;;;;;;5032699;28;20123;-67
2024/02/21 05:41:42;;;;;;;4.15;2.28;;;11.20;84.20;;;;;;5031773;28;20029;-67
2024/02/21 05:44:08;;;;;;;6.05;2.15;;;11.20;84.20;;;;;;5030953;28;20044;-67
2024/02/21 05:46:35;;;;;;;3.97;2.55;;;11.20;84.20;;;;;;5035850;28;20113;-67
2024/02/21 05:49:01;;;;;;;5.50;3.17;;;11.20;84.20;;;;;;5031824;28;20552;-67
2024/02/21 05:51:27;;;;;;;6.03;2.42;;;11.20;84.20;;;;;;5027399;28;20100;-67
2024/02/21 05:53:53;;;;;;;6.82;2.90;;;11.10;84.20;;;;;;5031710;28;20061;-67
2024/02/21 05:56:19;;;;;;;5.63;2.50;;;11.20;84.30;;;;;;5031524;28;20119;-67
2024/02/21 05:58:45;;;;;;;4.55;2.70;;;11.10;84.20;;;;;;5030724;28;20505;-67
2024/02/21 06:01:11;;;;;;;2.80;2.38;;;11.10;84.20;;;;;;5031350;28;20147;-67
2024/02/21 06:03:37;;;;;;;5.72;2.50;;;11.10;84.20;;;;;;5029987;28;20032;-67
2024/02/21 06:06:04;;;;;;;5.45;2.35;;;11.10;84.20;;;;;;5023232;28;20017;-67
2024/02/21 06:08:30;;;;;;;4.03;2.17;;;11.10;84.20;;;;;;5031676;28;20037;-67
2024/02/21 06:10:56;;;;;;;3.95;2.22;;;11.20;84.80;;;;;;5031405;28;20025;-67
2024/02/21 06:13:23;;;;;;;4.95;2.05;;;11.20;84.10;;;;;;5035728;28;20416;-67
2024/02/21 06:15:50;;;;;;;4.72;1.65;;;11.20;84.60;;;;;;5031529;28;20500;-67
2024/02/21 06:18:19;;;;;;;3.75;1.90;;;11.30;84.10;;;;;;5033044;28;20032;-67
2024/02/21 06:20:46;;;;;;;5.38;3.20;;;11.20;84.70;;;;;;5032201;28;20036;-67
2024/02/21 06:23:12;;;;;;;11.40;2.63;;;11.20;83.90;;;;;;5031546;28;20036;-67
2024/02/21 06:25:38;;;;;;;4.18;2.90;;;11.30;83.90;;;;;;5030097;28;20036;-67
2024/02/21 06:28:05;;;;;;;5.40;2.10;;;11.20;83.90;;;;;;5010088;28;20036;-67
2024/02/21 06:30:31;;;;;;;9.75;3.67;;;11.20;83.90;;;;;;5026108;28;20120;-67
2024/02/21 06:32:56;;;;;;;5.03;2.60;;;11.10;84.00;;;;;;5030266;28;20100;-67
2024/02/21 06:35:25;;;;;;;5.30;2.58;;;11.10;84.10;;;;;;5031069;28;20029;-67
2024/02/21 06:37:52;;;;;;;6.00;3.17;;;11.10;84.00;;;;;;5029031;28;20037;-67
2024/02/21 06:40:23;;;;;;;6.70;2.55;;;11.00;84.10;;;;;;5031244;28;20346;-67
2024/02/21 06:42:50;;;;;;;4.47;2.33;;;11.00;84.20;;;;;;5030693;28;20474;-67
2024/02/21 06:45:16;;;;;;;12.05;1.80;;;11.00;84.20;;;;;;5029845;28;20121;-67
2024/02/21 06:47:42;;;;;;;5.38;2.95;;;11.00;84.20;;;;;;5030920;28;20028;-67
2024/02/21 06:50:08;;;;;;;3.70;2.75;;;11.10;84.10;;;;;;5031067;28;20037;-67
2024/02/21 06:52:34;;;;;;;7.25;2.42;;;11.10;84.00;;;;;;5031094;28;20060;-67
2024/02/21 06:55:00;;;;;;;6.20;2.65;;;11.10;83.90;;;;;;5038734;28;20029;-67
2024/02/21 06:57:26;;;;;;;8.32;1.85;;;11.10;83.70;;;;;;5031111;28;20025;-67
2024/02/21 06:59:51;;;;;;;3.08;2.10;;;11.10;83.80;;;;;;5031050;28;20480;-67
2024/02/21 07:02:17;;;;;;;4.15;2.15;;;11.10;83.80;;;;;;5034170;28;20021;-67
2024/02/21 07:04:43;;;;;;;6.00;1.85;;;11.20;83.80;;;;;;5030730;28;20044;-67
2024/02/21 07:07:09;;;;;;;7.72;2.25;;;11.20;83.70;;;;;;5030587;28;20037;-63
2024/02/21 07:09:35;;;;;;;3.80;2.20;;;11.20;83.60;;;;;;5032010;28;20396;-63
2024/02/21 07:12:01;;;;;;;3.38;1.80;;;11.20;83.70;;;;;;5029639;28;20021;-63
2024/02/21 07:14:28;;;;;;;9.25;2.10;;;11.20;83.70;;;;;;5033834;28;20025;-63
2024/02/21 07:16:54;;;;;;;7.07;2.80;;;11.10;83.50;;;;;;5030040;28;20405;-64
2024/02/21 07:19:20;;;;;;;6.78;3.13;;;11.10;83.70;;;;;;5031872;28;20025;-63
2024/02/21 07:21:46;;;;;;;7.05;2.13;;;11.20;83.60;;;;;;5032369;28;20044;-63
2024/02/21 07:24:12;;;;;;;4.05;2.40;;;11.10;83.40;;;;;;5025835;28;20117;-63
2024/02/21 07:26:41;;;;;;;3.15;2.67;;;11.10;83.40;;;;;;5029051;28;20025;-63
2024/02/21 07:29:06;;;;;;;6.95;3.08;;;11.10;83.40;;;;;;5029096;28;20064;-66
2024/02/21 07:31:42;;;;;;;4.22;2.08;;;11.10;83.30;;;;;;5033500;28;20034;-67
2024/02/21 07:34:08;;;;;;;4.10;2.08;;;11.20;83.50;;;;;;5033367;28;20463;-67
2024/02/21 07:36:33;;;;;;;3.85;2.45;;;11.20;83.30;;;;;;5029993;28;20030;-67
2024/02/21 07:38:59;;;;;;;3.67;1.88;;;11.10;83.20;;;;;;5028671;28;20049;-67
2024/02/21 07:41:25;;;;;;;5.25;2.05;;;11.20;83.30;;;;;;5027702;28;20060;-67
2024/02/21 07:43:51;;;;;;;8.35;3.08;;;11.20;83.30;;;;;;5039437;28;20057;-67
2024/02/21 07:46:18;;;;;;;3.10;1.85;;;11.20;83.20;;;;;;5027461;28;20088;-66
2024/02/21 07:48:45;;;;;;;3.05;1.77;;;11.20;83.20;;;;;;5024387;28;20068;-68
2024/02/21 07:51:11;;;;;;;5.55;2.67;;;11.20;83.10;;;;;;5023773;28;20079;-69
2024/02/21 07:53:38;;;;;;;7.93;2.35;;;11.20;83.10;;;;;;5027390;28;20489;-69
2024/02/21 07:56:04;;;;;;;4.03;1.95;;;11.20;83.10;;;;;;5031347;28;20095;-69
2024/02/21 07:58:30;;;;;;;4.60;1.90;;;11.20;83.10;;;;;;5033782;28;20048;-67
2024/02/21 08:00:55;;;;;;;6.40;2.22;;;11.20;83.10;;;;;;5027053;28;20026;-69
2024/02/21 08:03:22;;;;;;;6.00;2.33;;;11.30;83.10;;;;;;5028546;28;20044;-70
2024/02/21 08:05:48;;;;;;;6.78;1.98;;;11.30;83.00;;;;;;5023165;28;20109;-71
2024/02/21 08:08:18;;;;;;;3.20;2.25;;;11.30;83.00;;;;;;5040918;28;20140;-69
2024/02/21 08:10:44;;;;;;;3.17;1.73;;;11.40;83.00;;;;;;5033430;28;20029;-68
2024/02/21 08:13:09;;;;;;;6.15;2.42;;;11.40;82.80;;;;;;5031554;28;20047;-67
2024/02/21 08:15:35;;;;;;;3.90;3.13;;;11.40;82.80;;;;;;5020655;28;20030;-68
2024/02/21 08:18:01;;;;;;;4.43;2.15;;;11.40;82.80;;;;;;5040736;28;20473;-63
2024/02/21 08:20:27;;;;;;;3.25;2.22;;;11.40;82.70;;;;;;5035235;28;20032;-68
2024/02/21 08:22:53;;;;;;;2.35;1.70;;;11.40;83.10;;;;;;5026664;28;20116;-68
2024/02/21 08:25:18;;;;;;;6.82;2.72;;;11.40;82.60;;;;;;5027602;28;20029;-68
2024/02/21 08:27:45;;;;;;;3.00;2.20;;;11.50;82.60;;;;;;5033053;28;20033;-68
2024/02/21 08:30:11;;;;;;;4.53;2.50;;;11.50;82.40;;;;;;5026887;28;20068;-63
2024/02/21 08:32:37;;;;;;;7.40;3.30;;;11.50;82.40;;;;;;5028011;28;20534;-63
2024/02/21 08:35:05;;;;;;;6.50;2.63;;;11.50;82.60;;;;;;5029288;28;20033;-63
2024/02/21 08:37:30;;;;;;;5.22;2.53;;;11.40;82.00;;;;;;5032403;28;20106;-63
2024/02/21 08:39:56;;;;;;;5.70;3.03;;;11.40;82.00;;;;;;5038847;28;20025;-63
2024/02/21 08:42:22;;;;;;;5.97;2.33;;;11.40;82.10;;;;;;5035463;28;20069;-63
2024/02/21 08:44:48;;;;;;;6.47;2.38;;;11.40;82.00;;;;;;5033677;28;20037;-63
2024/02/21 08:47:13;;;;;;;5.47;2.17;;;11.50;82.00;;;;;;5041261;28;20029;-63
2024/02/21 08:49:39;;;;;;;3.90;2.15;;;11.50;82.10;;;;;;5037758;28;20029;-63
2024/02/21 08:52:05;;;;;;;4.28;2.33;;;11.50;82.10;;;;;;5038365;28;20055;-63
2024/02/21 08:54:32;;;;;;;4.22;2.50;;;11.50;82.10;;;;;;5035856;28;20064;-63
2024/02/21 08:56:58;;;;;;;4.68;2.80;;;11.60;82.10;;;;;;5037405;28;20037;-63
2024/02/21 08:59:26;;;;;;;5.43;2.60;;;11.60;81.60;;;;;;5034842;28;20030;-63
2024/02/21 09:01:53;;;;;;;10.63;3.13;;;11.60;81.80;;;;;;5033665;28;20529;-63
2024/02/21 09:04:19;;;;;;;5.40;2.55;;;11.50;81.50;;;;;;5028236;28;20040;-63
2024/02/21 09:06:46;;;;;;;5.38;2.47;;;11.50;81.60;;;;;;5031228;28;20554;-63
2024/02/21 09:09:12;;;;;;;5.22;2.22;;;11.40;81.60;;;;;;5032503;28;20365;-63
2024/02/21 09:11:38;;;;;;;3.40;2.38;;;11.40;82.30;;;;;;5027072;28;20033;-63
2024/02/21 09:14:03;;;;;;;3.05;2.47;;;11.50;81.70;;;;;;5030898;28;20037;-63
2024/02/21 09:16:34;;;;;;;9.57;2.40;;;11.50;81.60;;;;;;5014374;28;20041;-63
2024/02/21 09:19:00;;;;;;;4.75;2.42;;;11.60;81.60;;;;;;5033078;28;20154;-63
2024/02/21 09:21:26;;;;;;;16.88;2.05;;;11.50;81.40;;;;;;5034932;28;20017;-65
2024/02/21 09:23:51;;;;;;;3.30;1.70;;;11.60;81.40;;;;;;5039699;28;20583;-66
2024/02/21 09:26:17;;;;;;;4.15;2.30;;;11.60;81.30;;;;;;5038597;28;20025;-66
2024/02/21 09:28:46;;;;;;;7.68;2.55;;;11.70;81.40;;;;;;5035872;28;20084;-66
2024/02/21 09:31:12;;;;;;;4.07;2.53;;;11.70;81.10;;;;;;5035101;28;20029;-66
2024/02/21 09:33:38;;;;;;;3.42;2.42;;;11.70;81.10;;;;;;5032270;28;20037;-66
2024/02/21 09:36:05;;;;;;;3.88;2.22;;;11.70;81.20;;;;;;5031105;28;20065;-66
2024/02/21 09:38:31;;;;;;;4.50;2.47;;;11.80;81.10;;;;;;5034089;28;20053;-66
2024/02/21 09:41:11;;;;;;;5.40;2.20;;;11.90;81.00;;;;;;5034430;28;20029;-66
2024/02/21 09:43:40;;;;;;;4.03;2.08;;;11.90;80.60;;;;;;5033642;28;20038;-66
2024/02/21 09:46:09;;;;;;;7.43;3.10;;;11.80;80.30;;;;;;5037318;28;20032;-66
2024/02/21 09:48:46;;;;;;;6.35;2.95;;;11.80;80.60;;;;;;5025765;28;20021;-66
2024/02/21 09:51:13;;;;;;;5.28;1.92;;;11.80;80.60;;;;;;5023311;28;20159;-66
2024/02/21 09:53:41;;;;;;;4.32;2.15;;;11.80;80.60;;;;;;5024823;28;20029;-66
2024/02/21 09:56:11;;;;;;;3.00;1.80;;;11.80;80.60;;;;;;5020060;28;20513;-63
2024/02/21 09:58:37;;;;;;;7.38;2.10;;;11.80;80.50;;;;;;5017558;28;20040;-63
2024/02/21 10:01:06;;;;;;;5.82;2.72;;;11.90;80.60;;;;;;5020130;28;20075;-63
2024/02/21 10:03:33;;;;;;;5.70;2.67;;;11.90;80.30;;;;;;5018881;28;20037;-62
2024/02/21 10:06:00;;;;;;;2.90;1.92;;;11.90;80.30;;;;;;5012742;28;20025;-63
2024/02/21 10:08:27;;;;;;;3.75;2.17;;;12.00;80.10;;;;;;5019328;28;20440;-63
2024/02/21 10:10:59;;;;;;;5.05;2.40;;;12.00;80.00;;;;;;5019321;28;20059;-63
2024/02/21 10:13:29;;;;;;;2.90;2.10;;;12.00;80.00;;;;;;5021505;28;20041;-63
2024/02/21 10:16:05;;;;;;;3.97;1.83;;;12.00;79.90;;;;;;5010312;28;20051;-62
2024/02/21 10:18:30;;;;;;;2.63;1.60;;;12.00;79.70;;;;;;5018821;28;20057;-64
2024/02/21 10:21:06;;;;;;;3.67;2.13;;;12.00;79.70;;;;;;5013827;28;20021;-63
2024/02/21 10:23:45;;;;;;;2.42;1.45;;;12.00;79.90;;;;;;5022848;28;20126;-63
2024/02/21 10:26:12;;;;;;;3.75;2.05;;;12.10;79.80;;;;;;5031598;28;20029;-63
2024/02/21 10:28:45;;;;;;;8.00;1.92;;;12.10;79.60;;;;;;5040767;28;20459;-64
2024/02/21 10:31:20;;;;;;;6.03;1.63;;;12.10;79.60;;;;;;5009031;28;20117;-63
2024/02/21 10:33:57;;;;;;;4.75;2.03;;;12.10;79.80;;;;;;5025136;28;20026;-64
2024/02/21 10:36:24;;;;;;;3.45;1.65;;;12.10;79.80;;;;;;5019165;28;20074;-64
2024/02/21 10:38:50;;;;;;;6.13;1.90;;;12.10;80.00;;;;;;5022348;28;20030;-63
2024/02/21 10:41:19;;;;;;;3.60;2.03;;;12.00;80.00;;;;;;5022022;28;20064;-64
2024/02/21 10:43:49;;;;;;;1.25;1.13;;;12.00;80.10;;;;;;5016043;28;20041;-64
2024/02/21 10:46:19;;;;;;;2.47;1.58;;;11.90;80.30;;;;;;5020007;28;20073;-63
2024/02/21 10:48:46;;;;;;;2.20;1.20;;;11.80;80.70;;;;;;5029379;28;20067;-64
2024/02/21 10:51:19;;;;;;;1.52;1.42;;;11.80;80.90;;;;;;5034190;28;20035;-64
2024/02/21 10:54:18;;;;;;;2.53;1.38;;;11.80;81.00;;;;;;5037038;28;20041;-63
2024/02/21 10:56:45;;;;;;;3.72;1.67;;;11.90;81.00;;;;;;5038327;28;20563;-64
2024/02/21 10:59:13;;;;;;;2.13;1.40;;;11.80;81.20;;;;;;5034949;28;20033;-63
2024/02/21 11:01:39;;;;;;;1.80;0.90;;;11.80;81.30;;;;;;5019372;28;20052;-63
2024/02/21 11:04:06;;;;;;;2.10;0.88;;;11.70;81.50;;;;;;5026328;28;20474;-64
2024/02/21 11:06:35;;;;;;;2.90;1.55;;;11.70;81.70;;;;;;5033681;28;20026;-64
2024/02/21 11:09:01;;;;;;;1.85;1.67;;;11.80;81.80;;;;;;5033761;28;20048;-64
2024/02/21 11:11:27;;;;;;;3.13;1.55;;;11.80;81.80;;;;;;5026989;28;20453;-64
2024/02/21 11:13:53;;;;;;;1.83;1.38;;;11.80;81.90;;;;;;5029495;28;20485;-67
2024/02/21 11:16:22;;;;;;;3.30;1.90;;;11.90;81.90;;;;;;5030012;28;20084;-67
2024/02/21 11:18:49;;;;;;;2.28;1.40;;;11.90;81.90;;;;;;5019226;28;20044;-66
2024/02/21 11:21:15;;;;;;;2.78;1.75;;;11.90;81.80;;;;;;5029521;28;20079;-64
2024/02/21 11:23:41;;;;;;;2.20;1.20;;;11.90;81.90;;;;;;5014369;28;20033;-61
2024/02/21 11:26:19;;;;;;;2.05;1.17;;;12.00;82.00;;;;;;5036608;28;20500;-61
2024/02/21 11:28:44;;;;;;;3.45;1.60;;;12.10;82.40;;;;;;5022603;28;20056;-62
2024/02/21 11:31:14;;;;;;;3.22;2.05;;;12.10;81.70;;;;;;5034862;28;20033;-61
2024/02/21 11:33:43;;;;;;;2.00;1.30;;;12.10;81.60;;;;;;5034551;28;20025;-62
2024/02/21 11:36:09;;;;;;;3.17;1.83;;;12.20;81.50;;;;;;5032217;28;20034;-64
2024/02/21 11:38:35;;;;;;;3.05;1.70;;;12.20;81.30;;;;;;5003423;28;20034;-64
2024/02/21 11:41:01;;;;;;;2.75;1.80;;;12.10;81.20;;;;;;5038460;28;20503;-64
2024/02/21 11:43:27;;;;;;;2.70;1.95;;;12.10;81.40;;;;;;5034295;28;20041;-64
2024/02/21 11:46:01;;;;;;;3.05;1.73;;;12.00;81.50;;;;;;5027563;28;20489;-64
2024/02/21 11:48:27;;;;;;;3.40;2.25;;;12.00;81.60;;;;;;5021276;28;20036;-64
2024/02/21 11:50:54;;;;;;;3.42;1.83;;;12.00;81.60;;;;;;5028726;28;20488;-64
2024/02/21 11:53:20;;;;;;;1.90;1.50;;;12.00;81.70;;;;;;5034959;28;20029;-62
2024/02/21 11:55:46;;;;;;;4.43;2.38;;;12.00;81.60;;;;;;5028909;28;20105;-61
2024/02/21 11:58:12;;;;;;;3.00;1.38;;;12.00;81.60;;;;;;5035699;28;20041;-62
2024/02/21 12:00:37;;;;;;;2.10;1.67;;;12.00;81.50;;;;;;5018218;28;20033;-62
2024/02/21 12:03:04;;;;;;;6.35;1.58;;;11.90;81.50;;;;;;5029232;28;20034;-62
2024/02/21 12:05:31;;;;;;;3.35;1.65;;;11.90;81.60;;;;;;5017132;28;20050;-62
2024/02/21 12:07:58;;;;;;;3.95;1.95;;;11.90;81.50;;;;;;5022505;28;20022;-62
2024/02/21 12:10:26;;;;;;;3.47;2.50;;;11.80;81.30;;;;;;5025231;28;20375;-65
2024/02/21 12:12:52;;;;;;;3.50;1.73;;;11.80;81.30;;;;;;5028022;28;20022;-65
2024/02/21 12:15:18;;;;;;;2.55;1.33;;;11.80;81.10;;;;;;5031125;28;20032;-65
2024/02/21 12:17:44;;;;;;;4.78;2.15;;;11.80;81.20;;;;;;5037975;28;20037;-65
2024/02/21 12:20:13;;;;;;;2.85;1.98;;;11.90;81.10;;;;;;5061730;28;20037;-65
2024/02/21 12:22:41;;;;;;;2.00;1.45;;;12.00;81.10;;;;;;5031219;28;20068;-65
2024/02/21 12:25:20;;;;;;;3.05;1.83;;;12.10;81.00;;;;;;5027247;28;20080;-65
2024/02/21 12:27:49;;;;;;;5.63;1.40;;;12.10;80.70;;;;;;5034200;28;20028;-65
2024/02/21 12:30:15;;;;;;;5.30;1.80;;;12.20;80.60;;;;;;5033351;28;20091;-65
2024/02/21 12:32:41;;;;;;;2.70;1.67;;;12.30;80.50;;;;;;5034769;28;20060;-65
2024/02/21 12:35:07;;;;;;;2.65;1.67;;;12.50;80.20;;;;;;5033895;28;20464;-66
2024/02/21 12:37:33;;;;;;;2.30;1.45;;;12.60;79.70;;;;;;5020776;28;20489;-65
2024/02/21 12:39:59;;;;;;;4.22;1.48;;;12.60;79.30;;;;;;5033144;28;20079;-65
2024/02/21 12:42:26;;;;;;;5.90;1.75;;;12.70;79.10;;;;;;5043854;28;20024;-65
2024/02/21 12:44:55;;;;;;;4.93;1.98;;;12.70;79.00;;;;;;5035006;28;20037;-65